createdAt,value
2024-05-09T00:00:36.184Z,98.23
2024-05-09T00:02:48.003Z,98.03
2024-05-09T00:04:54.156Z,98.49
2024-05-09T00:06:59.760Z,98.51
2024-05-09T00:09:05.080Z,98.30
2024-05-09T00:11:12.328Z,98.66
2024-05-09T00:13:17.820Z,98.56
2024-05-09T00:15:23.547Z,98.35
2024-05-09T00:17:30.129Z,98.21
2024-05-09T00:19:38.468Z,98.57
2024-05-09T00:21:45.625Z,98.55
2024-05-09T00:23:51.297Z,97.97
2024-05-09T00:25:56.760Z,97.56
2024-05-09T00:28:02.324Z,97.74
2024-05-09T00:30:14.365Z,97.08
2024-05-09T00:32:23.177Z,97.56
2024-05-09T00:34:28.935Z,97.39
2024-05-09T00:36:37.226Z,97.61
2024-05-09T00:38:42.929Z,97.31
2024-05-09T00:40:50.155Z,97.61
2024-05-09T00:42:55.792Z,97.75
2024-05-09T00:45:01.258Z,97.58
2024-05-09T00:47:08.509Z,97.14
2024-05-09T00:49:14.445Z,96.80
2024-05-09T00:51:20.276Z,96.25
2024-05-09T00:53:28.525Z,96.82
2024-05-09T00:55:36.944Z,96.80
2024-05-09T00:57:42.477Z,97.08
2024-05-09T00:59:45.353Z,96.97
2024-05-09T01:01:53.426Z,96.60
2024-05-09T01:03:56.504Z,96.62
2024-05-09T01:06:02.556Z,96.68
2024-05-09T01:08:09.649Z,96.49
2024-05-09T01:10:24.333Z,96.76
2024-05-09T01:12:37.801Z,96.73
2024-05-09T01:14:43.388Z,96.17
2024-05-09T01:16:49.843Z,96.34
2024-05-09T01:18:56.174Z,96.05
2024-05-09T01:21:02.079Z,96.22
2024-05-09T01:23:12.247Z,96.05
2024-05-09T01:25:19.059Z,95.97
2024-05-09T01:27:25.554Z,95.87
2024-05-09T01:29:31.984Z,95.87
2024-05-09T01:31:37.754Z,95.70
2024-05-09T01:33:43.459Z,95.73
2024-05-09T01:35:50.682Z,95.83
2024-05-09T01:37:56.530Z,95.85
2024-05-09T01:40:07.438Z,95.11
2024-05-09T01:42:16.502Z,95.18
2024-05-09T01:44:21.958Z,95.14
2024-05-09T01:46:28.738Z,94.71
2024-05-09T01:48:34.270Z,94.33
2024-05-09T01:50:42.508Z,94.42
2024-05-09T01:52:49.467Z,94.99
2024-05-09T01:54:55.100Z,95.46
2024-05-09T01:57:04.250Z,95.09
2024-05-09T02:02:26.848Z,95.52
2024-05-09T02:04:33.313Z,96.09
2024-05-09T02:06:43.314Z,96.05
2024-05-09T02:08:49.225Z,96.09
2024-05-09T02:10:54.792Z,95.71
2024-05-09T02:13:03.743Z,96.16
2024-05-09T02:15:09.455Z,95.55
2024-05-09T02:17:13.768Z,95.52
2024-05-09T02:19:19.540Z,95.51
2024-05-09T02:21:25.621Z,95.14
2024-05-09T02:23:31.723Z,94.96
2024-05-09T02:25:38.247Z,95.21
2024-05-09T02:27:44.676Z,95.36
2024-05-09T02:29:52.908Z,95.86
2024-05-09T02:31:58.359Z,95.98
2024-05-09T02:34:04.405Z,95.81
2024-05-09T02:36:08.842Z,95.71
2024-05-09T02:38:15.065Z,95.68
2024-05-09T02:40:25.242Z,95.95
2024-05-09T02:42:34.582Z,95.47
2024-05-09T02:44:37.497Z,94.87
2024-05-09T02:46:45.774Z,95.21
2024-05-09T02:48:49.494Z,95.07
2024-05-09T02:50:55.103Z,94.41
2024-05-09T02:52:58.010Z,94.97
2024-05-09T02:55:02.031Z,94.38
2024-05-09T02:57:08.814Z,95.07
2024-05-09T02:59:12.720Z,95.05
2024-05-09T03:01:20.513Z,95.17
2024-05-09T03:03:26.387Z,95.13
2024-05-09T03:05:32.259Z,94.86
2024-05-09T03:07:36.236Z,94.28
2024-05-09T03:09:41.684Z,93.86
2024-05-09T03:11:45.987Z,94.21
2024-05-09T03:13:54.578Z,94.63
2024-05-09T03:15:57.374Z,94.75
2024-05-09T03:18:03.619Z,94.46
2024-05-09T03:20:17.417Z,93.38
2024-05-09T03:22:30.130Z,93.83
2024-05-09T03:24:32.960Z,93.63
2024-05-09T03:26:38.487Z,93.32
2024-05-09T03:28:42.411Z,93.84
2024-05-09T03:30:45.311Z,94.17
2024-05-09T03:32:50.870Z,93.75
2024-05-09T03:34:54.068Z,94.02
2024-05-09T03:37:03.400Z,94.74
2024-05-09T03:39:06.449Z,94.59
2024-05-09T03:41:12.410Z,95.49
2024-05-09T03:43:15.541Z,95.13
2024-05-09T03:45:20.973Z,95.42
2024-05-09T03:47:24.028Z,95.82
2024-05-09T03:49:29.988Z,95.48
2024-05-09T03:51:33.143Z,95.63
2024-05-09T03:53:42.596Z,95.86
2024-05-09T03:55:46.804Z,95.87
2024-05-09T03:57:52.193Z,96.12
2024-05-09T03:59:55.234Z,96.20
2024-05-09T04:02:01.778Z,96.17
2024-05-09T04:04:04.877Z,96.33
2024-05-09T04:06:10.968Z,97.23
2024-05-09T04:08:15.559Z,97.31
2024-05-09T04:10:30.895Z,97.48
2024-05-09T04:12:37.778Z,97.71
2024-05-09T04:14:43.330Z,97.44
2024-05-09T04:16:46.244Z,97.52
2024-05-09T04:18:51.819Z,97.71
2024-05-09T04:20:54.812Z,98.02
2024-05-09T04:23:00.340Z,98.33
2024-05-09T04:25:03.613Z,97.71
2024-05-09T04:27:12.776Z,98.01
2024-05-09T04:29:15.858Z,98.12
2024-05-09T04:31:21.334Z,97.96
2024-05-09T04:33:25.338Z,98.49
2024-05-09T04:35:31.043Z,97.98
2024-05-09T04:37:34.229Z,97.93
2024-05-09T04:39:39.634Z,97.84
2024-05-09T04:41:42.682Z,98.08
2024-05-09T04:43:51.285Z,97.77
2024-05-09T04:45:54.435Z,97.82
2024-05-09T04:48:01.201Z,97.70
2024-05-09T04:50:08.849Z,97.90
2024-05-09T04:52:18.436Z,97.87
2024-05-09T04:54:30.244Z,98.38
2024-05-09T04:56:42.716Z,97.89
2024-05-09T04:58:48.314Z,98.09
2024-05-09T05:00:55.301Z,98.60
2024-05-09T05:02:58.139Z,99.13
2024-05-09T05:05:03.773Z,98.70
2024-05-09T05:07:06.718Z,97.98
2024-05-09T05:09:12.145Z,98.19
2024-05-09T05:11:15.373Z,97.88
2024-05-09T05:13:25.327Z,97.61
2024-05-09T05:15:30.762Z,97.46
2024-05-09T05:17:36.445Z,98.06
2024-05-09T05:19:39.899Z,97.77
2024-05-09T05:21:45.378Z,98.01
2024-05-09T05:23:48.167Z,97.55
2024-05-09T05:25:55.467Z,97.85
2024-05-09T05:27:58.616Z,97.73
2024-05-09T05:30:07.357Z,97.60
2024-05-09T05:32:15.101Z,97.02
2024-05-09T05:34:21.076Z,96.82
2024-05-09T05:36:24.633Z,96.56
2024-05-09T05:38:30.828Z,95.65
2024-05-09T05:40:37.187Z,94.78
2024-05-09T05:42:44.005Z,92.97
2024-05-09T05:44:46.804Z,92.05
2024-05-09T05:46:53.347Z,91.35
2024-05-09T05:48:59.078Z,91.56
2024-05-09T05:51:05.777Z,89.74
2024-05-09T05:53:10.726Z,89.41
2024-05-09T05:55:13.992Z,88.17
2024-05-09T05:57:19.884Z,86.41
2024-05-09T05:59:24.053Z,86.76
2024-05-09T06:01:29.757Z,86.33
2024-05-09T06:03:32.784Z,85.03
2024-05-09T06:05:43.457Z,84.83
2024-05-09T06:07:47.969Z,84.51
2024-05-09T06:09:53.878Z,84.11
2024-05-09T06:11:57.871Z,83.83
2024-05-09T06:14:05.412Z,84.11
2024-05-09T06:16:08.929Z,83.82
2024-05-09T06:18:14.776Z,84.08
2024-05-09T06:20:23.926Z,82.40
2024-05-09T06:22:40.050Z,81.38
2024-05-09T06:24:42.872Z,81.99
2024-05-09T06:26:48.973Z,81.18
2024-05-09T06:28:52.155Z,80.54
2024-05-09T06:30:57.605Z,80.02
2024-05-09T06:33:00.847Z,80.42
2024-05-09T06:35:07.038Z,80.90
2024-05-09T06:37:10.058Z,79.97
2024-05-09T06:39:16.147Z,80.18
2024-05-09T06:41:22.054Z,78.60
2024-05-09T06:43:25.294Z,76.89
2024-05-09T06:45:31.236Z,77.51
2024-05-09T06:47:34.252Z,76.55
2024-05-09T06:49:41.423Z,78.49
2024-05-09T06:51:44.441Z,77.35
2024-05-09T06:53:49.983Z,76.84
2024-05-09T06:55:55.542Z,76.24
2024-05-09T06:58:01.288Z,74.71
2024-05-09T07:02:12.131Z,71.52
2024-05-09T07:04:15.455Z,71.41
2024-05-09T07:06:21.197Z,68.33
2024-05-09T07:08:24.214Z,68.27
2024-05-09T07:10:34.818Z,67.86
2024-05-09T07:12:41.882Z,68.55
2024-05-09T07:14:47.593Z,70.44
2024-05-09T07:16:51.280Z,68.11
2024-05-09T07:18:57.612Z,66.26
2024-05-09T07:21:00.743Z,68.45
2024-05-09T07:23:06.541Z,68.28
2024-05-09T07:25:09.829Z,66.46
2024-05-09T07:27:15.491Z,65.85
2024-05-09T07:29:21.001Z,66.41
2024-05-09T07:31:28.272Z,66.62
2024-05-09T07:33:31.747Z,68.17
2024-05-09T07:35:37.863Z,65.42
2024-05-09T07:37:41.001Z,62.60
2024-05-09T07:39:46.744Z,60.49
2024-05-09T07:41:49.635Z,61.27
2024-05-09T07:43:55.748Z,62.59
2024-05-09T07:46:48.266Z,60.97
2024-05-09T07:50:01.062Z,60.87
2024-05-09T07:52:38.111Z,60.95
2024-05-09T07:53:38.351Z,59.23
2024-05-09T07:55:41.981Z,60.96
2024-05-09T07:57:49.414Z,61.67
2024-05-09T07:59:52.324Z,59.71
2024-05-09T08:02:01.890Z,60.37
2024-05-09T08:04:05.011Z,60.51
2024-05-09T08:06:10.624Z,60.48
2024-05-09T08:08:14.513Z,58.87
2024-05-09T08:10:24.506Z,58.71
2024-05-09T08:12:30.280Z,57.54
2024-05-09T08:14:37.974Z,58.22
2024-05-09T08:16:41.727Z,57.50
2024-05-09T08:18:50.968Z,58.81
2024-05-09T08:20:54.030Z,60.68
2024-05-09T08:22:59.501Z,59.84
2024-05-09T08:25:04.275Z,56.22
2024-05-09T08:27:10.144Z,57.87
2024-05-09T08:29:13.196Z,59.39
2024-05-09T08:31:20.392Z,58.62
2024-05-09T08:33:24.372Z,56.22
2024-05-09T08:35:35.557Z,57.90
2024-05-09T08:37:40.589Z,56.41
2024-05-09T08:39:46.624Z,57.36
2024-05-09T08:41:51.717Z,57.19
2024-05-09T08:43:57.912Z,57.39
2024-05-09T08:46:01.047Z,57.48
2024-05-09T08:48:08.675Z,56.44
2024-05-09T08:50:28.475Z,57.53
2024-05-09T08:52:42.768Z,57.63
2024-05-09T08:54:46.430Z,56.35
2024-05-09T08:56:54.672Z,57.90
2024-05-09T08:59:00.955Z,56.75
2024-05-09T09:01:08.301Z,56.91
2024-05-09T09:03:16.785Z,56.41
2024-05-09T09:05:23.407Z,57.04
2024-05-09T09:07:29.391Z,55.66
2024-05-09T09:09:43.643Z,54.80
2024-05-09T09:11:47.075Z,55.78
2024-05-09T09:13:52.840Z,55.36
2024-05-09T09:15:59.154Z,56.77
2024-05-09T09:18:07.277Z,57.23
2024-05-09T09:20:16.469Z,57.30
2024-05-09T09:22:25.806Z,58.23
2024-05-09T09:24:29.094Z,56.68
2024-05-09T09:26:37.393Z,57.80
2024-05-09T09:28:40.765Z,57.11
2024-05-09T09:30:46.960Z,57.18
2024-05-09T09:32:50.345Z,58.29
2024-05-09T09:34:56.926Z,57.77
2024-05-09T09:37:05.176Z,58.95
2024-05-09T09:39:11.257Z,57.62
2024-05-09T09:41:17.949Z,57.01
2024-05-09T09:43:27.272Z,57.11
2024-05-09T09:45:30.324Z,56.92
2024-05-09T09:47:39.854Z,57.63
2024-05-09T09:49:44.047Z,56.80
2024-05-09T09:51:50.923Z,55.58
2024-05-09T09:53:53.813Z,57.48
2024-05-09T09:55:59.605Z,59.13
2024-05-09T09:58:05.884Z,57.55
2024-05-09T10:02:20.325Z,56.91
2024-05-09T10:04:27.064Z,55.70
2024-05-09T10:06:30.886Z,56.74
2024-05-09T10:08:37.436Z,56.41
2024-05-09T10:10:47.423Z,56.46
2024-05-09T10:13:01.691Z,55.46
2024-05-09T10:15:09.126Z,56.90
2024-05-09T10:17:17.700Z,59.30
2024-05-09T10:19:26.956Z,57.25
2024-05-09T10:21:32.664Z,56.02
2024-05-09T10:23:36.549Z,55.15
2024-05-09T10:25:44.018Z,56.79
2024-05-09T10:27:55.436Z,58.58
2024-05-09T10:30:03.837Z,57.24
2024-05-09T10:32:09.347Z,54.82
2024-05-09T10:34:23.824Z,54.96
2024-05-09T10:36:27.347Z,56.12
2024-05-09T10:38:33.877Z,56.54
2024-05-09T10:40:37.721Z,54.57
2024-05-09T10:42:43.332Z,54.04
2024-05-09T10:44:48.899Z,57.47
2024-05-09T10:46:54.900Z,57.50
2024-05-09T10:49:01.019Z,57.43
2024-05-09T10:51:11.731Z,56.14
2024-05-09T10:53:15.020Z,55.81
2024-05-09T10:55:20.620Z,56.68
2024-05-09T10:57:24.752Z,54.74
2024-05-09T10:59:36.986Z,52.20
2024-05-09T11:01:40.646Z,53.33
2024-05-09T11:03:50.436Z,53.57
2024-05-09T11:05:54.825Z,53.79
2024-05-09T11:08:03.594Z,54.58
2024-05-09T11:10:12.286Z,54.56
2024-05-09T11:12:20.649Z,55.31
2024-05-09T11:14:24.396Z,55.68
2024-05-09T11:16:30.365Z,55.04
2024-05-09T11:18:38.171Z,54.89
2024-05-09T11:20:45.200Z,55.18
2024-05-09T11:22:48.078Z,55.70
2024-05-09T11:24:56.917Z,56.79
2024-05-09T11:27:00.649Z,57.21
2024-05-09T11:29:06.775Z,56.04
2024-05-09T11:31:10.708Z,56.97
2024-05-09T11:33:17.351Z,55.02
2024-05-09T11:35:20.510Z,53.68
2024-05-09T11:37:26.353Z,53.95
2024-05-09T11:39:29.249Z,54.02
2024-05-09T11:41:38.839Z,55.25
2024-05-09T11:43:41.667Z,54.55
2024-05-09T11:45:47.096Z,55.07
2024-05-09T11:47:50.259Z,54.25
2024-05-09T11:49:58.594Z,54.25
2024-05-09T11:52:01.512Z,55.58
2024-05-09T11:54:07.049Z,55.19
2024-05-09T11:56:11.903Z,55.46
2024-05-09T11:58:21.414Z,55.55
2024-05-09T12:00:33.901Z,54.81
2024-05-09T12:02:42.636Z,53.67
2024-05-09T12:04:47.006Z,55.97
2024-05-09T12:06:52.741Z,56.60
2024-05-09T12:08:55.847Z,57.04
2024-05-09T12:11:02.180Z,55.82
2024-05-09T12:13:06.960Z,54.16
2024-05-09T12:15:15.715Z,54.97
2024-05-09T12:17:19.354Z,56.34
2024-05-09T12:19:25.146Z,57.07
2024-05-09T12:21:28.128Z,54.22
2024-05-09T12:23:34.177Z,54.29
2024-05-09T12:25:37.288Z,53.84
2024-05-09T12:27:42.986Z,55.99
2024-05-09T12:29:45.851Z,56.11
2024-05-09T12:31:51.375Z,53.19
2024-05-09T12:33:57.227Z,54.03
2024-05-09T12:36:00.582Z,53.88
2024-05-09T12:38:06.590Z,54.66
2024-05-09T12:40:18.700Z,55.29
2024-05-09T12:42:33.733Z,55.34
2024-05-09T12:44:36.693Z,54.52
2024-05-09T12:46:42.259Z,54.72
2024-05-09T12:48:47.944Z,55.17
2024-05-09T12:50:55.065Z,54.57
2024-05-09T12:52:58.113Z,55.02
2024-05-09T12:55:03.720Z,54.88
2024-05-09T12:57:06.739Z,54.75
2024-05-09T12:59:09.577Z,55.24
2024-05-09T13:01:16.016Z,54.51
2024-05-09T13:03:19.062Z,54.13
2024-05-09T13:05:27.535Z,53.56
2024-05-09T13:07:31.466Z,54.52
2024-05-09T13:09:37.984Z,54.88
2024-05-09T13:11:41.722Z,55.97
2024-05-09T13:13:47.874Z,55.56
2024-05-09T13:15:51.178Z,54.99
2024-05-09T13:17:55.850Z,54.33
2024-05-09T13:20:04.277Z,55.67
2024-05-09T13:22:11.074Z,54.05
2024-05-09T13:24:16.585Z,54.65
2024-05-09T13:26:19.506Z,54.67
2024-05-09T13:28:25.381Z,55.60
2024-05-09T13:30:37.358Z,55.84
2024-05-09T13:32:45.857Z,55.76
2024-05-09T13:34:49.213Z,55.60
2024-05-09T13:36:54.833Z,54.56
2024-05-09T13:39:00.818Z,54.95
2024-05-09T13:41:03.836Z,53.75
2024-05-09T13:43:09.426Z,54.01
2024-05-09T13:45:12.899Z,54.09
2024-05-09T13:47:18.805Z,55.28
2024-05-09T13:49:21.880Z,52.96
2024-05-09T13:51:27.526Z,53.28
2024-05-09T13:53:31.411Z,54.71
2024-05-09T13:55:41.139Z,54.65
2024-05-09T13:57:44.093Z,55.55
2024-05-09T13:59:49.670Z,55.32
2024-05-09T14:01:52.771Z,55.45
2024-05-09T14:03:58.555Z,55.30
2024-05-09T14:06:02.243Z,56.07
2024-05-09T14:08:08.596Z,53.97
2024-05-09T14:10:19.909Z,54.88
2024-05-09T14:12:33.938Z,55.88
2024-05-09T14:14:36.858Z,56.64
2024-05-09T14:16:42.375Z,56.66
2024-05-09T14:18:45.347Z,54.72
2024-05-09T14:20:50.866Z,55.15
2024-05-09T14:22:53.770Z,55.85
2024-05-09T14:25:14.610Z,53.23
2024-05-09T14:27:17.416Z,53.61
2024-05-09T14:29:23.365Z,53.35
2024-05-09T14:31:26.346Z,54.55
2024-05-09T14:33:32.120Z,54.05
2024-05-09T14:35:35.318Z,55.16
2024-05-09T14:37:40.797Z,54.52
2024-05-09T14:39:43.632Z,56.12
2024-05-09T14:41:51.935Z,56.57
2024-05-09T14:43:54.626Z,55.65
2024-05-09T14:46:00.163Z,53.71
2024-05-09T14:48:04.163Z,54.11
2024-05-09T14:50:16.863Z,55.73
2024-05-09T14:52:26.185Z,54.87
2024-05-09T14:54:31.832Z,54.78
2024-05-09T14:56:34.645Z,53.76
2024-05-09T14:58:43.167Z,54.49
2024-05-09T15:00:50.329Z,53.68
2024-05-09T15:02:58.052Z,53.82
2024-05-09T15:05:01.273Z,55.24
2024-05-09T15:07:08.331Z,54.24
2024-05-09T15:09:13.084Z,55.60
2024-05-09T15:11:18.592Z,54.94
2024-05-09T15:13:21.757Z,54.47
2024-05-09T15:15:30.138Z,54.33
2024-05-09T15:17:33.462Z,53.69
2024-05-09T15:19:39.249Z,52.87
2024-05-09T15:21:42.220Z,54.17
2024-05-09T15:23:48.492Z,54.08
2024-05-09T15:25:51.509Z,54.22
2024-05-09T15:27:57.155Z,54.15
2024-05-09T15:30:02.230Z,54.89
2024-05-09T15:32:10.907Z,53.86
2024-05-09T15:34:13.925Z,53.68
2024-05-09T15:36:19.730Z,53.45
2024-05-09T15:38:22.614Z,54.58
2024-05-09T15:40:36.182Z,54.85
2024-05-09T15:42:43.366Z,55.67
2024-05-09T15:44:53.318Z,54.44
2024-05-09T15:46:56.411Z,55.18
2024-05-09T15:49:04.847Z,54.85
2024-05-09T15:51:07.801Z,54.31
2024-05-09T15:53:14.155Z,55.29
2024-05-09T15:55:17.616Z,54.72
2024-05-09T15:57:26.076Z,54.83
2024-05-09T15:59:28.868Z,55.22
2024-05-09T16:01:34.715Z,55.92
2024-05-09T16:03:37.648Z,55.85
2024-05-09T16:05:44.735Z,55.25
2024-05-09T16:07:50.417Z,54.46
2024-05-09T16:09:53.753Z,55.07
2024-05-09T16:11:59.491Z,55.15
2024-05-09T16:14:02.504Z,55.91
2024-05-09T16:16:08.739Z,55.87
2024-05-09T16:18:11.795Z,55.61
2024-05-09T16:20:29.020Z,55.22
2024-05-09T16:22:42.933Z,54.87
2024-05-09T16:24:51.558Z,54.13
2024-05-09T16:26:55.403Z,55.36
2024-05-09T16:29:01.057Z,55.34
2024-05-09T16:31:03.971Z,56.22
2024-05-09T16:33:10.886Z,55.60
2024-05-09T16:35:14.175Z,55.38
2024-05-09T16:37:19.717Z,55.34
2024-05-09T16:39:25.717Z,55.46
2024-05-09T16:41:31.161Z,55.13
2024-05-09T16:43:34.854Z,54.05
2024-05-09T16:45:40.651Z,54.17
2024-05-09T16:47:43.733Z,54.98
2024-05-09T16:49:49.399Z,55.05
2024-05-09T16:51:52.198Z,54.53
2024-05-09T16:53:58.312Z,55.62
2024-05-09T16:56:05.132Z,55.21
2024-05-09T16:58:12.434Z,54.93
2024-05-09T17:00:22.688Z,54.88
2024-05-09T17:02:38.918Z,55.36
2024-05-09T17:04:42.792Z,54.97
2024-05-09T17:06:45.972Z,56.24
2024-05-09T17:08:51.742Z,55.78
2024-05-09T17:10:56.141Z,55.89
2024-05-09T17:13:05.775Z,54.92
2024-05-09T17:15:13.585Z,55.74
2024-05-09T17:17:19.534Z,55.72
2024-05-09T17:19:25.126Z,55.82
2024-05-09T17:21:30.048Z,55.52
2024-05-09T17:23:35.668Z,55.70
2024-05-09T17:25:38.696Z,55.70
2024-05-09T17:27:45.072Z,55.65
2024-05-09T17:29:50.621Z,55.80
2024-05-09T17:31:56.194Z,56.38
2024-05-09T17:33:59.666Z,56.26
2024-05-09T17:36:05.312Z,55.73
2024-05-09T17:38:08.688Z,56.09
2024-05-09T17:40:17.258Z,56.24
2024-05-09T17:42:23.643Z,56.56
2024-05-09T17:44:29.729Z,56.68
2024-05-09T17:46:35.216Z,56.26
2024-05-09T17:48:40.837Z,56.91
2024-05-09T17:50:43.976Z,56.76
2024-05-09T17:52:51.430Z,56.48
2024-05-09T17:54:55.296Z,57.27
2024-05-09T17:57:01.232Z,57.37
2024-05-09T17:59:06.505Z,57.43
2024-05-09T18:01:14.030Z,57.61
2024-05-09T18:03:20.066Z,57.69
2024-05-09T18:05:26.019Z,58.14
2024-05-09T18:07:29.182Z,57.84
2024-05-09T18:09:34.719Z,57.91
2024-05-09T18:11:37.805Z,58.13
2024-05-09T18:13:43.305Z,57.94
2024-05-09T18:15:46.381Z,58.38
2024-05-09T18:17:53.256Z,58.32
2024-05-09T18:19:59.341Z,59.04
2024-05-09T18:22:05.087Z,58.30
2024-05-09T18:24:10.265Z,58.57
2024-05-09T18:26:16.043Z,58.94
2024-05-09T18:28:19.187Z,59.33
2024-05-09T18:30:32.064Z,59.59
2024-05-09T18:32:37.881Z,59.58
2024-05-09T18:34:43.527Z,60.01
2024-05-09T18:36:49.318Z,60.19
2024-05-09T18:38:55.435Z,60.63
2024-05-09T18:40:58.435Z,61.08
2024-05-09T18:43:06.635Z,61.97
2024-05-09T18:45:11.236Z,61.11
2024-05-09T18:47:19.848Z,60.90
2024-05-09T18:49:23.295Z,61.59
2024-05-09T18:51:28.934Z,61.28
2024-05-09T18:53:34.709Z,61.91
2024-05-09T18:55:40.180Z,63.12
2024-05-09T18:57:43.912Z,64.40
2024-05-09T18:59:49.364Z,64.62
2024-05-09T19:01:52.695Z,64.01
2024-05-09T19:03:58.631Z,64.69
2024-05-09T19:06:01.911Z,64.89
2024-05-09T19:08:07.948Z,63.91
2024-05-09T19:10:22.228Z,63.62
2024-05-09T19:12:31.393Z,65.54
2024-05-09T19:14:34.382Z,63.39
2024-05-09T19:16:39.826Z,65.27
2024-05-09T19:18:42.832Z,66.01
2024-05-09T19:20:49.406Z,65.74
2024-05-09T19:22:52.511Z,65.67
2024-05-09T19:24:58.196Z,65.70
2024-05-09T19:27:04.419Z,66.13
2024-05-09T19:29:10.074Z,66.62
2024-05-09T19:31:13.190Z,66.58
2024-05-09T19:33:19.182Z,66.63
2024-05-09T19:35:22.274Z,67.82
2024-05-09T19:37:28.816Z,69.17
2024-05-09T19:39:32.029Z,69.11
2024-05-09T19:41:37.905Z,70.29
2024-05-09T19:43:43.600Z,70.15
2024-05-09T19:45:49.310Z,69.85
2024-05-09T19:47:52.724Z,70.97
2024-05-09T19:49:58.423Z,70.90
2024-05-09T19:52:01.573Z,71.41
2024-05-09T19:54:07.202Z,71.40
2024-05-09T19:56:10.162Z,71.24
2024-05-09T19:58:16.002Z,71.60
2024-05-09T20:00:29.155Z,71.11
2024-05-09T20:02:40.996Z,71.21
2024-05-09T20:04:45.810Z,71.89
2024-05-09T20:06:51.677Z,71.67
2024-05-09T20:08:57.233Z,72.34
2024-05-09T20:11:02.959Z,73.25
2024-05-09T20:13:07.696Z,72.97
2024-05-09T20:15:14.102Z,73.21
2024-05-09T20:17:19.856Z,72.91
2024-05-09T20:19:26.527Z,72.74
2024-05-09T20:21:29.616Z,73.40
2024-05-09T20:23:35.170Z,72.70
2024-05-09T20:25:38.299Z,73.40
2024-05-09T20:27:44.667Z,72.50
2024-05-09T20:29:48.265Z,73.08
2024-05-09T20:31:54.537Z,72.57
2024-05-09T20:34:00.237Z,73.04
2024-05-09T20:36:05.947Z,73.58
2024-05-09T20:38:08.827Z,73.37
2024-05-09T20:40:21.637Z,73.44
2024-05-09T20:42:31.801Z,73.50
2024-05-09T20:44:37.607Z,74.02
2024-05-09T20:46:41.060Z,74.04
2024-05-09T20:48:47.180Z,74.86
2024-05-09T20:50:53.050Z,75.10
2024-05-09T20:52:59.156Z,75.46
2024-05-09T20:55:02.429Z,75.60
2024-05-09T20:57:08.922Z,75.59
2024-05-09T20:59:12.371Z,74.98
2024-05-09T21:01:17.850Z,75.35
2024-05-09T21:03:20.982Z,75.62
2024-05-09T21:05:27.131Z,75.70
2024-05-09T21:07:33.980Z,75.57
2024-05-09T21:09:40.307Z,76.19
2024-05-09T21:11:43.253Z,76.69
2024-05-09T21:13:48.844Z,76.22
2024-05-09T21:15:51.852Z,76.41
2024-05-09T21:17:55.738Z,76.93
2024-05-09T21:20:01.364Z,77.31
2024-05-09T21:22:05.491Z,77.65
2024-05-09T21:24:13.808Z,77.48
2024-05-09T21:26:17.359Z,78.04
2024-05-09T21:28:22.901Z,77.88
2024-05-09T21:30:33.108Z,78.11
2024-05-09T21:32:46.773Z,78.49
2024-05-09T21:34:49.889Z,78.60
2024-05-09T21:36:56.040Z,78.44
2024-05-09T21:39:00.388Z,78.54
2024-05-09T21:41:10.292Z,79.04
2024-05-09T21:43:13.376Z,79.43
2024-05-09T21:45:19.237Z,79.67
2024-05-09T21:47:22.991Z,79.48
2024-05-09T21:49:28.814Z,79.72
2024-05-09T21:51:31.994Z,80.00
2024-05-09T21:53:38.011Z,80.22
2024-05-09T21:55:41.030Z,80.03
2024-05-09T21:57:49.155Z,80.99
2024-05-09T21:59:52.032Z,80.67
2024-05-09T22:01:58.759Z,81.30
2024-05-09T22:04:01.982Z,80.94
2024-05-09T22:06:07.654Z,81.40
2024-05-09T22:08:11.140Z,80.94
2024-05-09T22:10:25.641Z,81.31
2024-05-09T22:12:33.057Z,81.45
2024-05-09T22:14:41.195Z,81.86
2024-05-09T22:16:44.300Z,81.51
2024-05-09T22:18:49.993Z,82.06
2024-05-09T22:20:54.743Z,81.94
2024-05-09T22:23:00.281Z,82.12
2024-05-09T22:25:03.428Z,82.33
2024-05-09T22:27:12.106Z,82.08
2024-05-09T22:29:15.045Z,82.00
2024-05-09T22:31:23.453Z,82.77
2024-05-09T22:33:27.350Z,82.62
2024-05-09T22:35:33.688Z,82.39
2024-05-09T22:37:37.509Z,82.70
2024-05-09T22:39:43.029Z,82.39
2024-05-09T22:41:45.974Z,82.31
2024-05-09T22:43:51.526Z,83.06
2024-05-09T22:45:55.153Z,82.98
2024-05-09T22:48:02.436Z,83.01
2024-05-09T22:50:15.996Z,83.26
2024-05-09T22:52:26.196Z,83.01
2024-05-09T22:54:32.254Z,82.96
2024-05-09T22:56:35.478Z,83.33
2024-05-09T22:58:41.159Z,83.01
2024-05-09T23:00:46.126Z,83.55
2024-05-09T23:02:52.291Z,83.56
2024-05-09T23:04:57.923Z,83.58
2024-05-09T23:07:03.817Z,83.24
2024-05-09T23:09:09.806Z,83.43
2024-05-09T23:11:15.524Z,83.39
2024-05-09T23:13:18.926Z,84.02
2024-05-09T23:15:25.620Z,83.89
2024-05-09T23:17:28.595Z,83.60
2024-05-09T23:19:34.716Z,83.66
2024-05-09T23:21:41.628Z,83.81
2024-05-09T23:23:47.723Z,83.88
2024-05-09T23:25:51.670Z,83.85
2024-05-09T23:27:57.252Z,83.92
2024-05-09T23:30:01.263Z,84.12
2024-05-09T23:32:09.553Z,84.56
2024-05-09T23:34:12.530Z,84.98
2024-05-09T23:36:18.356Z,85.02
2024-05-09T23:38:24.838Z,85.28
2024-05-09T23:40:37.872Z,85.53
2024-05-09T23:42:43.368Z,85.24
2024-05-09T23:44:49.908Z,85.21
2024-05-09T23:46:53.683Z,85.72
2024-05-09T23:48:59.329Z,85.82
2024-05-09T23:51:02.382Z,85.62
2024-05-09T23:53:10.161Z,85.55
2024-05-09T23:55:16.655Z,85.68
2024-05-09T23:57:22.180Z,85.07
2024-05-09T23:59:25.674Z,85.10
